sensor_id;sensor_type;location;lat;lon;timestamp;P1;durP1;ratioP1;P2;durP2;ratioP2
21148;SDS011;10732;51.472;6.466;2022-10-17T00:01:58;13.02;;;8.90;;
21148;SDS011;10732;51.472;6.466;2022-10-17T00:04:23;12.18;;;8.98;;
21148;SDS011;10732;51.472;6.466;2022-10-17T00:06:49;10.05;;;9.05;;
21148;SDS011;10732;51.472;6.466;2022-10-17T00:09:14;10.13;;;8.95;;
21148;SDS011;10732;51.472;6.466;2022-10-17T00:11:40;10.38;;;9.23;;
21148;SDS011;10732;51.472;6.466;2022-10-17T00:14:05;11.20;;;9.25;;
21148;SDS011;10732;51.472;6.466;2022-10-17T00:16:32;13.75;;;9.77;;
21148;SDS011;10732;51.472;6.466;2022-10-17T00:19:00;14.45;;;9.77;;
21148;SDS011;10732;51.472;6.466;2022-10-17T00:21:26;11.38;;;10.10;;
21148;SDS011;10732;51.472;6.466;2022-10-17T00:23:52;15.63;;;10.32;;
21148;SDS011;10732;51.472;6.466;2022-10-17T00:26:18;13.05;;;10.32;;
21148;SDS011;10732;51.472;6.466;2022-10-17T00:28:48;14.60;;;11.10;;
21148;SDS011;10732;51.472;6.466;2022-10-17T00:31:15;12.63;;;10.63;;
21148;SDS011;10732;51.472;6.466;2022-10-17T00:33:42;14.55;;;11.02;;
21148;SDS011;10732;51.472;6.466;2022-10-17T00:38:37;14.55;;;11.60;;
21148;SDS011;10732;51.472;6.466;2022-10-17T00:41:04;14.75;;;11.07;;
21148;SDS011;10732;51.472;6.466;2022-10-17T00:43:47;14.70;;;11.35;;
21148;SDS011;10732;51.472;6.466;2022-10-17T00:46:13;15.02;;;11.45;;
21148;SDS011;10732;51.472;6.466;2022-10-17T00:48:38;18.13;;;11.70;;
21148;SDS011;10732;51.472;6.466;2022-10-17T00:51:04;18.00;;;12.00;;
21148;SDS011;10732;51.472;6.466;2022-10-17T00:53:30;18.58;;;11.80;;
21148;SDS011;10732;51.472;6.466;2022-10-17T00:55:56;15.35;;;12.50;;
21148;SDS011;10732;51.472;6.466;2022-10-17T00:58:22;18.67;;;11.63;;
21148;SDS011;10732;51.472;6.466;2022-10-17T01:00:48;18.02;;;12.13;;
21148;SDS011;10732;51.472;6.466;2022-10-17T01:03:13;14.02;;;11.63;;
21148;SDS011;10732;51.472;6.466;2022-10-17T01:05:39;18.15;;;12.77;;
21148;SDS011;10732;51.472;6.466;2022-10-17T01:08:06;16.00;;;11.95;;
21148;SDS011;10732;51.472;6.466;2022-10-17T01:10:34;14.18;;;12.15;;
21148;SDS011;10732;51.472;6.466;2022-10-17T01:13:28;15.77;;;12.07;;
21148;SDS011;10732;51.472;6.466;2022-10-17T01:18:41;16.00;;;12.95;;
21148;SDS011;10732;51.472;6.466;2022-10-17T01:21:42;17.83;;;12.93;;
21148;SDS011;10732;51.472;6.466;2022-10-17T01:24:29;19.35;;;13.38;;
21148;SDS011;10732;51.472;6.466;2022-10-17T01:35:26;16.10;;;13.77;;
21148;SDS011;10732;51.472;6.466;2022-10-17T01:37:55;19.02;;;13.25;;
21148;SDS011;10732;51.472;6.466;2022-10-17T01:40:29;15.00;;;13.13;;
21148;SDS011;10732;51.472;6.466;2022-10-17T01:45:44;19.00;;;13.88;;
21148;SDS011;10732;51.472;6.466;2022-10-17T01:48:18;17.95;;;13.80;;
21148;SDS011;10732;51.472;6.466;2022-10-17T01:50:48;19.20;;;14.40;;
21148;SDS011;10732;51.472;6.466;2022-10-17T01:53:18;19.42;;;14.77;;
21148;SDS011;10732;51.472;6.466;2022-10-17T01:55:50;18.58;;;14.77;;
21148;SDS011;10732;51.472;6.466;2022-10-17T01:58:23;18.15;;;13.98;;
21148;SDS011;10732;51.472;6.466;2022-10-17T02:00:53;18.65;;;14.20;;
21148;SDS011;10732;51.472;6.466;2022-10-17T02:03:22;18.02;;;12.80;;
21148;SDS011;10732;51.472;6.466;2022-10-17T02:05:49;16.02;;;13.02;;
21148;SDS011;10732;51.472;6.466;2022-10-17T02:08:23;17.42;;;13.68;;
21148;SDS011;10732;51.472;6.466;2022-10-17T02:10:55;16.95;;;14.02;;
21148;SDS011;10732;51.472;6.466;2022-10-17T02:13:44;19.98;;;13.65;;
21148;SDS011;10732;51.472;6.466;2022-10-17T02:16:38;20.90;;;15.23;;
21148;SDS011;10732;51.472;6.466;2022-10-17T02:19:25;19.92;;;14.32;;
21148;SDS011;10732;51.472;6.466;2022-10-17T02:30:44;17.48;;;13.98;;
21148;SDS011;10732;51.472;6.466;2022-10-17T02:33:13;19.45;;;15.45;;
21148;SDS011;10732;51.472;6.466;2022-10-17T02:36:02;21.88;;;15.90;;
21148;SDS011;10732;51.472;6.466;2022-10-17T02:38:33;22.40;;;15.45;;
21148;SDS011;10732;51.472;6.466;2022-10-17T02:40:59;25.98;;;15.85;;
21148;SDS011;10732;51.472;6.466;2022-10-17T02:43:26;22.90;;;15.45;;
21148;SDS011;10732;51.472;6.466;2022-10-17T02:45:52;20.67;;;15.80;;
21148;SDS011;10732;51.472;6.466;2022-10-17T02:48:37;16.75;;;14.80;;
21148;SDS011;10732;51.472;6.466;2022-10-17T02:56:22;20.90;;;16.10;;
21148;SDS011;10732;51.472;6.466;2022-10-17T02:58:52;25.13;;;16.52;;
21148;SDS011;10732;51.472;6.466;2022-10-17T03:01:21;20.73;;;15.82;;
21148;SDS011;10732;51.472;6.466;2022-10-17T03:03:47;23.05;;;15.80;;
21148;SDS011;10732;51.472;6.466;2022-10-17T03:06:12;22.95;;;16.05;;
21148;SDS011;10732;51.472;6.466;2022-10-17T03:08:38;22.02;;;15.60;;
21148;SDS011;10732;51.472;6.466;2022-10-17T03:11:03;20.10;;;15.80;;
21148;SDS011;10732;51.472;6.466;2022-10-17T03:13:29;20.10;;;15.35;;
21148;SDS011;10732;51.472;6.466;2022-10-17T03:15:55;20.10;;;16.40;;
21148;SDS011;10732;51.472;6.466;2022-10-17T03:18:21;19.13;;;15.05;;
21148;SDS011;10732;51.472;6.466;2022-10-17T03:20:47;18.13;;;15.07;;
21148;SDS011;10732;51.472;6.466;2022-10-17T03:23:12;19.48;;;15.75;;
21148;SDS011;10732;51.472;6.466;2022-10-17T03:25:38;21.10;;;15.15;;
21148;SDS011;10732;51.472;6.466;2022-10-17T03:28:04;27.60;;;15.95;;
21148;SDS011;10732;51.472;6.466;2022-10-17T03:30:29;20.48;;;16.23;;
21148;SDS011;10732;51.472;6.466;2022-10-17T03:32:58;23.52;;;15.25;;
21148;SDS011;10732;51.472;6.466;2022-10-17T03:35:25;18.58;;;14.48;;
21148;SDS011;10732;51.472;6.466;2022-10-17T03:37:51;22.98;;;16.20;;
21148;SDS011;10732;51.472;6.466;2022-10-17T03:40:18;19.80;;;15.52;;
21148;SDS011;10732;51.472;6.466;2022-10-17T03:42:44;20.48;;;15.02;;
21148;SDS011;10732;51.472;6.466;2022-10-17T03:45:09;18.38;;;14.73;;
21148;SDS011;10732;51.472;6.466;2022-10-17T03:47:35;23.20;;;14.77;;
21148;SDS011;10732;51.472;6.466;2022-10-17T03:50:00;21.45;;;14.43;;
21148;SDS011;10732;51.472;6.466;2022-10-17T03:52:26;22.33;;;14.55;;
21148;SDS011;10732;51.472;6.466;2022-10-17T03:54:52;20.10;;;14.35;;
21148;SDS011;10732;51.472;6.466;2022-10-17T03:57:17;16.10;;;13.25;;
21148;SDS011;10732;51.472;6.466;2022-10-17T03:59:43;17.33;;;14.18;;
21148;SDS011;10732;51.472;6.466;2022-10-17T04:02:09;18.13;;;14.07;;
21148;SDS011;10732;51.472;6.466;2022-10-17T04:04:34;20.30;;;14.02;;
21148;SDS011;10732;51.472;6.466;2022-10-17T04:07:00;20.08;;;14.02;;
21148;SDS011;10732;51.472;6.466;2022-10-17T04:09:25;20.20;;;13.68;;
21148;SDS011;10732;51.472;6.466;2022-10-17T04:11:51;19.58;;;13.70;;
21148;SDS011;10732;51.472;6.466;2022-10-17T04:14:17;21.35;;;14.57;;
21148;SDS011;10732;51.472;6.466;2022-10-17T04:16:42;16.10;;;13.95;;
21148;SDS011;10732;51.472;6.466;2022-10-17T04:19:11;17.88;;;13.90;;
21148;SDS011;10732;51.472;6.466;2022-10-17T04:21:37;18.42;;;14.55;;
21148;SDS011;10732;51.472;6.466;2022-10-17T04:24:03;18.98;;;13.73;;
21148;SDS011;10732;51.472;6.466;2022-10-17T04:26:29;16.88;;;13.15;;
21148;SDS011;10732;51.472;6.466;2022-10-17T04:28:54;17.10;;;13.20;;
21148;SDS011;10732;51.472;6.466;2022-10-17T04:31:20;19.70;;;13.55;;
21148;SDS011;10732;51.472;6.466;2022-10-17T04:33:46;20.05;;;13.55;;
21148;SDS011;10732;51.472;6.466;2022-10-17T04:36:14;21.27;;;14.07;;
21148;SDS011;10732;51.472;6.466;2022-10-17T04:38:41;18.90;;;12.95;;
21148;SDS011;10732;51.472;6.466;2022-10-17T04:41:10;17.45;;;12.43;;
21148;SDS011;10732;51.472;6.466;2022-10-17T04:43:38;16.42;;;12.70;;
21148;SDS011;10732;51.472;6.466;2022-10-17T04:46:06;17.83;;;12.30;;
21148;SDS011;10732;51.472;6.466;2022-10-17T04:48:33;18.88;;;12.40;;
21148;SDS011;10732;51.472;6.466;2022-10-17T04:51:00;18.05;;;11.98;;
21148;SDS011;10732;51.472;6.466;2022-10-17T04:53:27;13.40;;;11.75;;
21148;SDS011;10732;51.472;6.466;2022-10-17T04:55:54;16.88;;;12.45;;
21148;SDS011;10732;51.472;6.466;2022-10-17T04:58:20;16.42;;;11.95;;
21148;SDS011;10732;51.472;6.466;2022-10-17T05:00:46;18.33;;;12.80;;
21148;SDS011;10732;51.472;6.466;2022-10-17T05:03:11;17.23;;;12.30;;
21148;SDS011;10732;51.472;6.466;2022-10-17T05:05:37;18.45;;;12.35;;
21148;SDS011;10732;51.472;6.466;2022-10-17T05:08:04;14.82;;;11.77;;
21148;SDS011;10732;51.472;6.466;2022-10-17T05:10:35;15.45;;;11.45;;
21148;SDS011;10732;51.472;6.466;2022-10-17T05:13:01;13.25;;;11.35;;
21148;SDS011;10732;51.472;6.466;2022-10-17T05:15:27;13.55;;;10.50;;
21148;SDS011;10732;51.472;6.466;2022-10-17T05:17:55;13.80;;;11.18;;
21148;SDS011;10732;51.472;6.466;2022-10-17T05:20:21;16.42;;;11.23;;
21148;SDS011;10732;51.472;6.466;2022-10-17T05:22:47;20.27;;;10.98;;
21148;SDS011;10732;51.472;6.466;2022-10-17T05:25:12;17.90;;;11.20;;
21148;SDS011;10732;51.472;6.466;2022-10-17T05:27:38;13.82;;;11.30;;
21148;SDS011;10732;51.472;6.466;2022-10-17T05:30:04;15.13;;;11.38;;
21148;SDS011;10732;51.472;6.466;2022-10-17T05:32:30;13.32;;;11.77;;
21148;SDS011;10732;51.472;6.466;2022-10-17T05:34:56;18.88;;;11.77;;
21148;SDS011;10732;51.472;6.466;2022-10-17T05:37:21;12.90;;;11.07;;
21148;SDS011;10732;51.472;6.466;2022-10-17T05:39:47;19.27;;;11.60;;
21148;SDS011;10732;51.472;6.466;2022-10-17T05:42:12;12.23;;;10.45;;
21148;SDS011;10732;51.472;6.466;2022-10-17T05:44:38;14.98;;;10.82;;
21148;SDS011;10732;51.472;6.466;2022-10-17T05:47:05;12.32;;;10.95;;
21148;SDS011;10732;51.472;6.466;2022-10-17T05:49:31;12.38;;;10.65;;
21148;SDS011;10732;51.472;6.466;2022-10-17T05:51:57;15.98;;;11.23;;
21148;SDS011;10732;51.472;6.466;2022-10-17T05:54:22;13.40;;;11.15;;
21148;SDS011;10732;51.472;6.466;2022-10-17T05:56:52;14.38;;;11.80;;
21148;SDS011;10732;51.472;6.466;2022-10-17T05:59:18;17.05;;;12.05;;
21148;SDS011;10732;51.472;6.466;2022-10-17T06:01:44;15.70;;;11.20;;
21148;SDS011;10732;51.472;6.466;2022-10-17T06:04:10;17.42;;;12.23;;
21148;SDS011;10732;51.472;6.466;2022-10-17T06:06:35;18.67;;;11.57;;
21148;SDS011;10732;51.472;6.466;2022-10-17T06:09:02;17.83;;;11.70;;
21148;SDS011;10732;51.472;6.466;2022-10-17T06:11:27;12.90;;;11.43;;
21148;SDS011;10732;51.472;6.466;2022-10-17T06:13:53;13.32;;;11.27;;
21148;SDS011;10732;51.472;6.466;2022-10-17T06:16:18;13.70;;;11.10;;
21148;SDS011;10732;51.472;6.466;2022-10-17T06:18:44;15.90;;;11.23;;
21148;SDS011;10732;51.472;6.466;2022-10-17T06:21:10;16.33;;;11.25;;
21148;SDS011;10732;51.472;6.466;2022-10-17T06:23:36;16.08;;;10.65;;
21148;SDS011;10732;51.472;6.466;2022-10-17T06:26:03;13.93;;;10.40;;
21148;SDS011;10732;51.472;6.466;2022-10-17T06:28:30;15.45;;;10.50;;
21148;SDS011;10732;51.472;6.466;2022-10-17T06:30:56;13.07;;;9.93;;
21148;SDS011;10732;51.472;6.466;2022-10-17T06:33:21;11.73;;;9.60;;
21148;SDS011;10732;51.472;6.466;2022-10-17T06:35:49;15.63;;;9.55;;
21148;SDS011;10732;51.472;6.466;2022-10-17T06:38:19;13.88;;;8.77;;
21148;SDS011;10732;51.472;6.466;2022-10-17T06:40:44;13.68;;;9.23;;
21148;SDS011;10732;51.472;6.466;2022-10-17T06:43:10;11.48;;;8.07;;
21148;SDS011;10732;51.472;6.466;2022-10-17T06:45:37;11.57;;;8.75;;
21148;SDS011;10732;51.472;6.466;2022-10-17T06:48:03;12.07;;;8.25;;
21148;SDS011;10732;51.472;6.466;2022-10-17T06:50:29;11.38;;;8.75;;
21148;SDS011;10732;51.472;6.466;2022-10-17T06:52:55;13.15;;;9.07;;
21148;SDS011;10732;51.472;6.466;2022-10-17T06:55:20;13.13;;;8.50;;
21148;SDS011;10732;51.472;6.466;2022-10-17T06:57:46;11.70;;;8.13;;
21148;SDS011;10732;51.472;6.466;2022-10-17T07:00:12;10.90;;;7.85;;
21148;SDS011;10732;51.472;6.466;2022-10-17T07:02:38;11.00;;;8.25;;
21148;SDS011;10732;51.472;6.466;2022-10-17T07:05:04;11.90;;;7.95;;
21148;SDS011;10732;51.472;6.466;2022-10-17T07:07:30;12.32;;;7.78;;
21148;SDS011;10732;51.472;6.466;2022-10-17T07:09:56;11.57;;;7.45;;
21148;SDS011;10732;51.472;6.466;2022-10-17T07:12:22;11.60;;;7.25;;
21148;SDS011;10732;51.472;6.466;2022-10-17T07:14:48;9.77;;;7.13;;
21148;SDS011;10732;51.472;6.466;2022-10-17T07:17:15;14.32;;;7.35;;
21148;SDS011;10732;51.472;6.466;2022-10-17T07:19:44;10.32;;;6.63;;
21148;SDS011;10732;51.472;6.466;2022-10-17T07:22:10;11.48;;;6.78;;
21148;SDS011;10732;51.472;6.466;2022-10-17T07:24:36;9.90;;;6.90;;
21148;SDS011;10732;51.472;6.466;2022-10-17T07:27:02;9.90;;;6.53;;
21148;SDS011;10732;51.472;6.466;2022-10-17T07:29:27;11.15;;;6.35;;
21148;SDS011;10732;51.472;6.466;2022-10-17T07:31:55;11.07;;;6.60;;
21148;SDS011;10732;51.472;6.466;2022-10-17T07:34:21;8.50;;;6.00;;
21148;SDS011;10732;51.472;6.466;2022-10-17T07:36:51;7.63;;;5.70;;
21148;SDS011;10732;51.472;6.466;2022-10-17T07:39:17;8.50;;;5.60;;
21148;SDS011;10732;51.472;6.466;2022-10-17T07:41:43;7.10;;;5.53;;
21148;SDS011;10732;51.472;6.466;2022-10-17T07:44:08;12.02;;;5.57;;
21148;SDS011;10732;51.472;6.466;2022-10-17T07:46:34;7.93;;;5.22;;
21148;SDS011;10732;51.472;6.466;2022-10-17T07:48:59;8.70;;;5.47;;
21148;SDS011;10732;51.472;6.466;2022-10-17T07:51:25;11.27;;;4.93;;
21148;SDS011;10732;51.472;6.466;2022-10-17T07:53:51;8.70;;;4.90;;
21148;SDS011;10732;51.472;6.466;2022-10-17T07:56:17;9.85;;;4.38;;
21148;SDS011;10732;51.472;6.466;2022-10-17T07:58:43;9.38;;;4.20;;
21148;SDS011;10732;51.472;6.466;2022-10-17T08:01:09;7.28;;;4.10;;
21148;SDS011;10732;51.472;6.466;2022-10-17T08:03:38;8.23;;;4.20;;
21148;SDS011;10732;51.472;6.466;2022-10-17T08:06:08;8.68;;;4.18;;
21148;SDS011;10732;51.472;6.466;2022-10-17T08:08:33;7.78;;;4.32;;
21148;SDS011;10732;51.472;6.466;2022-10-17T08:11:03;9.35;;;4.35;;
21148;SDS011;10732;51.472;6.466;2022-10-17T08:13:31;7.97;;;4.18;;
21148;SDS011;10732;51.472;6.466;2022-10-17T08:16:04;7.75;;;3.75;;
21148;SDS011;10732;51.472;6.466;2022-10-17T08:18:32;6.85;;;3.63;;
21148;SDS011;10732;51.472;6.466;2022-10-17T08:20:59;6.53;;;3.97;;
21148;SDS011;10732;51.472;6.466;2022-10-17T08:23:25;6.75;;;3.70;;
21148;SDS011;10732;51.472;6.466;2022-10-17T08:25:51;6.70;;;3.58;;
21148;SDS011;10732;51.472;6.466;2022-10-17T08:28:17;9.80;;;3.85;;
21148;SDS011;10732;51.472;6.466;2022-10-17T08:30:42;7.53;;;3.30;;
21148;SDS011;10732;51.472;6.466;2022-10-17T08:33:08;8.85;;;3.50;;
21148;SDS011;10732;51.472;6.466;2022-10-17T08:35:33;8.20;;;3.00;;
21148;SDS011;10732;51.472;6.466;2022-10-17T08:37:59;6.60;;;3.28;;
21148;SDS011;10732;51.472;6.466;2022-10-17T08:40:27;8.48;;;3.40;;
21148;SDS011;10732;51.472;6.466;2022-10-17T08:45:40;7.47;;;3.33;;
21148;SDS011;10732;51.472;6.466;2022-10-17T08:48:14;8.57;;;3.45;;
21148;SDS011;10732;51.472;6.466;2022-10-17T08:50:47;8.82;;;3.90;;
21148;SDS011;10732;51.472;6.466;2022-10-17T08:56:04;9.32;;;3.58;;
21148;SDS011;10732;51.472;6.466;2022-10-17T08:58:46;6.03;;;3.83;;
21148;SDS011;10732;51.472;6.466;2022-10-17T09:06:38;6.00;;;3.60;;
21148;SDS011;10732;51.472;6.466;2022-10-17T09:12:13;7.30;;;3.80;;
21148;SDS011;10732;51.472;6.466;2022-10-17T09:15:02;7.53;;;3.70;;
21148;SDS011;10732;51.472;6.466;2022-10-17T09:17:46;7.07;;;3.63;;
21148;SDS011;10732;51.472;6.466;2022-10-17T09:20:19;7.78;;;4.15;;
21148;SDS011;10732;51.472;6.466;2022-10-17T09:23:00;8.43;;;3.50;;
21148;SDS011;10732;51.472;6.466;2022-10-17T09:25:30;8.05;;;3.63;;
21148;SDS011;10732;51.472;6.466;2022-10-17T09:28:10;6.38;;;3.60;;
21148;SDS011;10732;51.472;6.466;2022-10-17T09:35:49;5.82;;;4.05;;
21148;SDS011;10732;51.472;6.466;2022-10-17T09:38:20;11.65;;;4.78;;
21148;SDS011;10732;51.472;6.466;2022-10-17T09:40:49;7.53;;;4.47;;
21148;SDS011;10732;51.472;6.466;2022-10-17T09:43:19;9.10;;;4.20;;
21148;SDS011;10732;51.472;6.466;2022-10-17T09:46:04;7.82;;;4.63;;
21148;SDS011;10732;51.472;6.466;2022-10-17T09:48:42;11.68;;;4.57;;
21148;SDS011;10732;51.472;6.466;2022-10-17T09:51:12;9.38;;;5.00;;
21148;SDS011;10732;51.472;6.466;2022-10-17T09:53:40;7.90;;;5.00;;
21148;SDS011;10732;51.472;6.466;2022-10-17T09:56:10;9.23;;;5.07;;
21148;SDS011;10732;51.472;6.466;2022-10-17T09:58:44;10.25;;;5.38;;
21148;SDS011;10732;51.472;6.466;2022-10-17T10:01:19;10.20;;;5.38;;
21148;SDS011;10732;51.472;6.466;2022-10-17T10:03:47;12.07;;;5.30;;
21148;SDS011;10732;51.472;6.466;2022-10-17T10:08:50;11.70;;;5.20;;
21148;SDS011;10732;51.472;6.466;2022-10-17T10:11:43;10.00;;;5.82;;
21148;SDS011;10732;51.472;6.466;2022-10-17T10:14:10;9.85;;;5.30;;
21148;SDS011;10732;51.472;6.466;2022-10-17T10:16:43;10.45;;;5.75;;
21148;SDS011;10732;51.472;6.466;2022-10-17T10:22:19;10.15;;;6.07;;
21148;SDS011;10732;51.472;6.466;2022-10-17T10:25:05;6.25;;;5.63;;
21148;SDS011;10732;51.472;6.466;2022-10-17T10:27:44;7.85;;;5.93;;
21148;SDS011;10732;51.472;6.466;2022-10-17T10:30:22;8.95;;;5.82;;
21148;SDS011;10732;51.472;6.466;2022-10-17T10:32:51;12.73;;;6.10;;
21148;SDS011;10732;51.472;6.466;2022-10-17T10:35:30;9.55;;;5.35;;
21148;SDS011;10732;51.472;6.466;2022-10-17T10:37:58;8.35;;;5.43;;
21148;SDS011;10732;51.472;6.466;2022-10-17T10:40:31;7.63;;;5.68;;
21148;SDS011;10732;51.472;6.466;2022-10-17T10:43:03;7.00;;;5.68;;
21148;SDS011;10732;51.472;6.466;2022-10-17T10:50:46;7.60;;;6.30;;
21148;SDS011;10732;51.472;6.466;2022-10-17T10:56:20;9.45;;;6.28;;
21148;SDS011;10732;51.472;6.466;2022-10-17T10:58:54;7.97;;;6.65;;
21148;SDS011;10732;51.472;6.466;2022-10-17T11:01:28;14.00;;;8.05;;
21148;SDS011;10732;51.472;6.466;2022-10-17T11:07:17;10.48;;;7.10;;
21148;SDS011;10732;51.472;6.466;2022-10-17T11:09:55;11.73;;;7.88;;
21148;SDS011;10732;51.472;6.466;2022-10-17T11:12:29;9.73;;;7.68;;
21148;SDS011;10732;51.472;6.466;2022-10-17T11:15:08;9.15;;;6.65;;
21148;SDS011;10732;51.472;6.466;2022-10-17T11:23:17;9.93;;;5.82;;
21148;SDS011;10732;51.472;6.466;2022-10-17T11:25:49;10.32;;;6.15;;
21148;SDS011;10732;51.472;6.466;2022-10-17T11:28:17;7.15;;;5.57;;
21148;SDS011;10732;51.472;6.466;2022-10-17T11:30:55;8.00;;;5.65;;
21148;SDS011;10732;51.472;6.466;2022-10-17T11:33:34;11.60;;;5.53;;
21148;SDS011;10732;51.472;6.466;2022-10-17T11:36:23;10.05;;;5.10;;
21148;SDS011;10732;51.472;6.466;2022-10-17T11:38:57;9.52;;;5.40;;
21148;SDS011;10732;51.472;6.466;2022-10-17T11:44:25;8.07;;;5.85;;
21148;SDS011;10732;51.472;6.466;2022-10-17T11:47:06;8.38;;;5.50;;
21148;SDS011;10732;51.472;6.466;2022-10-17T11:49:50;10.32;;;6.35;;
21148;SDS011;10732;51.472;6.466;2022-10-17T11:52:26;10.45;;;5.95;;
21148;SDS011;10732;51.472;6.466;2022-10-17T11:55:01;8.57;;;6.28;;
21148;SDS011;10732;51.472;6.466;2022-10-17T11:57:40;11.32;;;6.22;;
21148;SDS011;10732;51.472;6.466;2022-10-17T12:17:04;7.93;;;5.72;;
21148;SDS011;10732;51.472;6.466;2022-10-17T12:19:45;11.18;;;5.70;;
21148;SDS011;10732;51.472;6.466;2022-10-17T12:22:21;9.40;;;5.60;;
21148;SDS011;10732;51.472;6.466;2022-10-17T12:24:54;7.35;;;5.60;;
21148;SDS011;10732;51.472;6.466;2022-10-17T12:30:14;11.15;;;6.43;;
21148;SDS011;10732;51.472;6.466;2022-10-17T12:33:01;9.02;;;5.32;;
21148;SDS011;10732;51.472;6.466;2022-10-17T12:35:42;7.60;;;5.10;;
21148;SDS011;10732;51.472;6.466;2022-10-17T12:38:18;7.05;;;4.50;;
21148;SDS011;10732;51.472;6.466;2022-10-17T12:40:46;10.60;;;4.82;;
21148;SDS011;10732;51.472;6.466;2022-10-17T12:45:45;11.73;;;4.32;;
21148;SDS011;10732;51.472;6.466;2022-10-17T12:48:11;8.02;;;4.78;;
21148;SDS011;10732;51.472;6.466;2022-10-17T12:56:47;8.70;;;3.75;;
21148;SDS011;10732;51.472;6.466;2022-10-17T12:59:19;7.65;;;4.32;;
21148;SDS011;10732;51.472;6.466;2022-10-17T13:01:45;5.72;;;4.07;;
21148;SDS011;10732;51.472;6.466;2022-10-17T13:04:13;8.07;;;4.43;;
21148;SDS011;10732;51.472;6.466;2022-10-17T13:06:47;7.88;;;4.28;;
21148;SDS011;10732;51.472;6.466;2022-10-17T13:09:37;7.13;;;3.63;;
21148;SDS011;10732;51.472;6.466;2022-10-17T13:12:09;10.02;;;4.40;;
21148;SDS011;10732;51.472;6.466;2022-10-17T13:14:39;10.25;;;4.55;;
21148;SDS011;10732;51.472;6.466;2022-10-17T13:17:18;10.93;;;4.47;;
21148;SDS011;10732;51.472;6.466;2022-10-17T13:19:46;9.63;;;4.50;;
21148;SDS011;10732;51.472;6.466;2022-10-17T13:22:16;7.90;;;4.38;;
21148;SDS011;10732;51.472;6.466;2022-10-17T13:24:47;9.27;;;4.22;;
21148;SDS011;10732;51.472;6.466;2022-10-17T13:27:21;7.38;;;4.15;;
21148;SDS011;10732;51.472;6.466;2022-10-17T13:29:58;6.47;;;4.50;;
21148;SDS011;10732;51.472;6.466;2022-10-17T13:32:38;8.52;;;4.00;;
21148;SDS011;10732;51.472;6.466;2022-10-17T13:35:11;5.22;;;3.88;;
21148;SDS011;10732;51.472;6.466;2022-10-17T13:37:40;6.43;;;4.13;;
21148;SDS011;10732;51.472;6.466;2022-10-17T13:40:14;6.80;;;4.18;;
21148;SDS011;10732;51.472;6.466;2022-10-17T13:42:44;10.27;;;4.90;;
21148;SDS011;10732;51.472;6.466;2022-10-17T13:45:14;7.90;;;4.40;;
21148;SDS011;10732;51.472;6.466;2022-10-17T13:47:48;10.15;;;4.68;;
21148;SDS011;10732;51.472;6.466;2022-10-17T13:50:20;11.10;;;4.95;;
21148;SDS011;10732;51.472;6.466;2022-10-17T13:53:04;9.20;;;4.50;;
21148;SDS011;10732;51.472;6.466;2022-10-17T13:55:54;8.52;;;4.28;;
21148;SDS011;10732;51.472;6.466;2022-10-17T13:58:22;12.02;;;4.50;;
21148;SDS011;10732;51.472;6.466;2022-10-17T14:00:49;10.45;;;4.40;;
21148;SDS011;10732;51.472;6.466;2022-10-17T14:03:16;8.45;;;4.18;;
21148;SDS011;10732;51.472;6.466;2022-10-17T14:06:00;14.20;;;4.55;;
21148;SDS011;10732;51.472;6.466;2022-10-17T14:08:29;8.32;;;4.20;;
21148;SDS011;10732;51.472;6.466;2022-10-17T14:10:57;6.40;;;4.32;;
21148;SDS011;10732;51.472;6.466;2022-10-17T14:13:25;7.35;;;4.30;;
21148;SDS011;10732;51.472;6.466;2022-10-17T14:15:53;5.47;;;3.83;;
21148;SDS011;10732;51.472;6.466;2022-10-17T14:18:25;7.57;;;4.28;;
21148;SDS011;10732;51.472;6.466;2022-10-17T14:20:53;14.80;;;4.20;;
21148;SDS011;10732;51.472;6.466;2022-10-17T14:28:37;8.73;;;3.97;;
21148;SDS011;10732;51.472;6.466;2022-10-17T14:31:23;8.63;;;3.92;;
21148;SDS011;10732;51.472;6.466;2022-10-17T14:33:54;12.27;;;4.15;;
21148;SDS011;10732;51.472;6.466;2022-10-17T14:36:28;9.55;;;4.45;;
21148;SDS011;10732;51.472;6.466;2022-10-17T14:38:58;9.23;;;4.80;;
21148;SDS011;10732;51.472;6.466;2022-10-17T14:41:29;6.35;;;4.00;;
21148;SDS011;10732;51.472;6.466;2022-10-17T14:44:00;8.90;;;4.63;;
21148;SDS011;10732;51.472;6.466;2022-10-17T14:46:28;9.05;;;4.80;;
21148;SDS011;10732;51.472;6.466;2022-10-17T14:48:55;9.48;;;4.50;;
21148;SDS011;10732;51.472;6.466;2022-10-17T14:51:39;13.80;;;4.35;;
21148;SDS011;10732;51.472;6.466;2022-10-17T14:54:16;8.60;;;4.38;;
21148;SDS011;10732;51.472;6.466;2022-10-17T14:56:50;10.30;;;4.45;;
21148;SDS011;10732;51.472;6.466;2022-10-17T14:59:16;8.20;;;4.57;;
21148;SDS011;10732;51.472;6.466;2022-10-17T15:01:46;8.50;;;4.47;;
21148;SDS011;10732;51.472;6.466;2022-10-17T15:04:15;8.05;;;5.05;;
21148;SDS011;10732;51.472;6.466;2022-10-17T15:06:41;6.45;;;4.53;;
21148;SDS011;10732;51.472;6.466;2022-10-17T15:09:08;8.52;;;5.03;;
21148;SDS011;10732;51.472;6.466;2022-10-17T15:11:34;6.55;;;4.78;;
21148;SDS011;10732;51.472;6.466;2022-10-17T15:14:00;8.25;;;5.03;;
21148;SDS011;10732;51.472;6.466;2022-10-17T15:16:29;12.35;;;5.47;;
21148;SDS011;10732;51.472;6.466;2022-10-17T15:18:55;12.38;;;5.68;;
21148;SDS011;10732;51.472;6.466;2022-10-17T15:21:22;7.60;;;5.35;;
21148;SDS011;10732;51.472;6.466;2022-10-17T15:23:49;8.52;;;5.95;;
21148;SDS011;10732;51.472;6.466;2022-10-17T15:26:16;7.18;;;5.57;;
21148;SDS011;10732;51.472;6.466;2022-10-17T15:28:46;9.45;;;6.25;;
21148;SDS011;10732;51.472;6.466;2022-10-17T15:31:14;9.68;;;5.88;;
21148;SDS011;10732;51.472;6.466;2022-10-17T15:33:44;14.23;;;6.40;;
21148;SDS011;10732;51.472;6.466;2022-10-17T15:36:48;12.88;;;6.75;;
21148;SDS011;10732;51.472;6.466;2022-10-17T15:39:06;12.45;;;6.63;;
21148;SDS011;10732;51.472;6.466;2022-10-17T15:41:33;13.57;;;6.53;;
21148;SDS011;10732;51.472;6.466;2022-10-17T15:43:59;10.05;;;6.20;;
21148;SDS011;10732;51.472;6.466;2022-10-17T15:46:28;9.65;;;6.38;;
21148;SDS011;10732;51.472;6.466;2022-10-17T15:48:57;9.88;;;6.45;;
21148;SDS011;10732;51.472;6.466;2022-10-17T15:51:26;8.40;;;6.43;;
21148;SDS011;10732;51.472;6.466;2022-10-17T15:53:52;11.02;;;6.65;;
21148;SDS011;10732;51.472;6.466;2022-10-17T15:56:33;11.45;;;6.72;;
21148;SDS011;10732;51.472;6.466;2022-10-17T15:59:21;11.90;;;7.40;;
21148;SDS011;10732;51.472;6.466;2022-10-17T16:01:51;14.00;;;7.30;;
21148;SDS011;10732;51.472;6.466;2022-10-17T16:04:16;10.65;;;7.25;;
21148;SDS011;10732;51.472;6.466;2022-10-17T16:06:42;14.98;;;7.65;;
21148;SDS011;10732;51.472;6.466;2022-10-17T16:09:08;11.60;;;7.55;;
21148;SDS011;10732;51.472;6.466;2022-10-17T16:11:36;11.20;;;7.63;;
21148;SDS011;10732;51.472;6.466;2022-10-17T16:14:10;12.73;;;8.00;;
21148;SDS011;10732;51.472;6.466;2022-10-17T16:16:37;9.07;;;7.25;;
21148;SDS011;10732;51.472;6.466;2022-10-17T16:19:03;10.35;;;7.75;;
21148;SDS011;10732;51.472;6.466;2022-10-17T16:21:30;11.48;;;8.05;;
21148;SDS011;10732;51.472;6.466;2022-10-17T16:23:59;8.45;;;7.45;;
21148;SDS011;10732;51.472;6.466;2022-10-17T16:26:25;11.13;;;7.82;;
21148;SDS011;10732;51.472;6.466;2022-10-17T16:28:51;13.57;;;8.60;;
21148;SDS011;10732;51.472;6.466;2022-10-17T16:33:46;11.85;;;8.57;;
21148;SDS011;10732;51.472;6.466;2022-10-17T16:36:12;11.82;;;8.75;;
21148;SDS011;10732;51.472;6.466;2022-10-17T16:38:38;10.43;;;8.50;;
21148;SDS011;10732;51.472;6.466;2022-10-17T16:41:04;10.95;;;8.52;;